sensor_id;sensor_type;location;lat;lon;timestamp;temperature;humidity
28763;DHT22;15918;51.270;6.522;2023-09-07T00:01:30;24.70;56.40
28763;DHT22;15918;51.270;6.522;2023-09-07T00:03:56;24.70;56.40
28763;DHT22;15918;51.270;6.522;2023-09-07T00:06:22;24.70;56.40
28763;DHT22;15918;51.270;6.522;2023-09-07T00:08:47;24.70;56.40
28763;DHT22;15918;51.270;6.522;2023-09-07T00:11:13;24.70;56.40
28763;DHT22;15918;51.270;6.522;2023-09-07T00:13:39;24.60;56.40
28763;DHT22;15918;51.270;6.522;2023-09-07T00:16:05;24.70;56.50
28763;DHT22;15918;51.270;6.522;2023-09-07T00:18:32;24.60;56.50
28763;DHT22;15918;51.270;6.522;2023-09-07T00:20:58;24.60;56.40
28763;DHT22;15918;51.270;6.522;2023-09-07T00:23:25;24.60;56.40
28763;DHT22;15918;51.270;6.522;2023-09-07T00:25:51;24.60;56.40
28763;DHT22;15918;51.270;6.522;2023-09-07T00:28:16;24.60;56.40
28763;DHT22;15918;51.270;6.522;2023-09-07T00:30:42;24.50;56.40
28763;DHT22;15918;51.270;6.522;2023-09-07T00:33:08;24.50;56.40
28763;DHT22;15918;51.270;6.522;2023-09-07T00:35:35;24.50;56.40
28763;DHT22;15918;51.270;6.522;2023-09-07T00:38:01;24.50;56.40
28763;DHT22;15918;51.270;6.522;2023-09-07T00:40:26;24.50;56.40
28763;DHT22;15918;51.270;6.522;2023-09-07T00:42:53;24.50;56.40
28763;DHT22;15918;51.270;6.522;2023-09-07T00:45:19;24.40;56.40
28763;DHT22;15918;51.270;6.522;2023-09-07T00:47:45;24.40;56.50
28763;DHT22;15918;51.270;6.522;2023-09-07T00:50:11;24.40;56.60
28763;DHT22;15918;51.270;6.522;2023-09-07T00:52:42;24.40;56.70
28763;DHT22;15918;51.270;6.522;2023-09-07T00:55:08;24.40;56.80
28763;DHT22;15918;51.270;6.522;2023-09-07T00:57:34;24.40;56.80
28763;DHT22;15918;51.270;6.522;2023-09-07T01:00:00;24.40;56.90
28763;DHT22;15918;51.270;6.522;2023-09-07T01:02:25;24.40;56.90
28763;DHT22;15918;51.270;6.522;2023-09-07T01:04:51;24.40;56.90
28763;DHT22;15918;51.270;6.522;2023-09-07T01:07:20;24.30;56.80
28763;DHT22;15918;51.270;6.522;2023-09-07T01:09:52;24.30;56.80
28763;DHT22;15918;51.270;6.522;2023-09-07T01:12:19;24.30;56.80
28763;DHT22;15918;51.270;6.522;2023-09-07T01:14:45;24.30;56.80
28763;DHT22;15918;51.270;6.522;2023-09-07T01:17:11;24.30;56.80
28763;DHT22;15918;51.270;6.522;2023-09-07T01:19:39;24.20;56.80
28763;DHT22;15918;51.270;6.522;2023-09-07T01:22:08;24.20;56.80
28763;DHT22;15918;51.270;6.522;2023-09-07T01:24:34;24.20;56.80
28763;DHT22;15918;51.270;6.522;2023-09-07T01:27:02;24.20;56.80
28763;DHT22;15918;51.270;6.522;2023-09-07T01:29:29;24.20;56.80
28763;DHT22;15918;51.270;6.522;2023-09-07T01:31:56;24.20;56.80
28763;DHT22;15918;51.270;6.522;2023-09-07T01:34:22;24.20;56.70
28763;DHT22;15918;51.270;6.522;2023-09-07T01:36:48;24.10;56.70
28763;DHT22;15918;51.270;6.522;2023-09-07T01:39:14;24.10;56.70
28763;DHT22;15918;51.270;6.522;2023-09-07T01:41:40;24.10;56.70
28763;DHT22;15918;51.270;6.522;2023-09-07T01:44:05;24.10;56.60
28763;DHT22;15918;51.270;6.522;2023-09-07T01:46:31;24.10;56.60
28763;DHT22;15918;51.270;6.522;2023-09-07T01:48:56;24.10;56.60
28763;DHT22;15918;51.270;6.522;2023-09-07T01:51:22;24.10;56.50
28763;DHT22;15918;51.270;6.522;2023-09-07T01:53:48;24.00;56.50
28763;DHT22;15918;51.270;6.522;2023-09-07T01:56:17;24.00;56.50
28763;DHT22;15918;51.270;6.522;2023-09-07T01:58:42;24.00;56.50
28763;DHT22;15918;51.270;6.522;2023-09-07T02:01:29;24.00;56.40
28763;DHT22;15918;51.270;6.522;2023-09-07T02:03:55;24.00;56.30
28763;DHT22;15918;51.270;6.522;2023-09-07T02:06:21;23.90;56.40
28763;DHT22;15918;51.270;6.522;2023-09-07T02:08:46;23.90;56.40
28763;DHT22;15918;51.270;6.522;2023-09-07T02:11:12;23.90;56.40
28763;DHT22;15918;51.270;6.522;2023-09-07T02:13:41;23.90;56.40
28763;DHT22;15918;51.270;6.522;2023-09-07T02:16:07;23.90;56.40
28763;DHT22;15918;51.270;6.522;2023-09-07T02:18:33;23.90;56.40
28763;DHT22;15918;51.270;6.522;2023-09-07T02:21:03;23.90;56.40
28763;DHT22;15918;51.270;6.522;2023-09-07T02:23:30;23.80;56.30
28763;DHT22;15918;51.270;6.522;2023-09-07T02:25:55;23.80;56.30
28763;DHT22;15918;51.270;6.522;2023-09-07T02:28:21;23.80;56.30
28763;DHT22;15918;51.270;6.522;2023-09-07T02:30:47;23.80;56.30
28763;DHT22;15918;51.270;6.522;2023-09-07T02:33:13;23.80;56.30
28763;DHT22;15918;51.270;6.522;2023-09-07T02:35:38;23.70;56.30
28763;DHT22;15918;51.270;6.522;2023-09-07T02:38:04;23.70;56.20
28763;DHT22;15918;51.270;6.522;2023-09-07T02:40:29;23.80;56.30
28763;DHT22;15918;51.270;6.522;2023-09-07T02:42:55;23.70;56.30
28763;DHT22;15918;51.270;6.522;2023-09-07T02:45:21;23.70;56.30
28763;DHT22;15918;51.270;6.522;2023-09-07T02:47:46;23.70;56.30
28763;DHT22;15918;51.270;6.522;2023-09-07T02:50:14;23.70;56.30
28763;DHT22;15918;51.270;6.522;2023-09-07T02:52:41;23.60;56.20
28763;DHT22;15918;51.270;6.522;2023-09-07T02:55:07;23.60;56.10
28763;DHT22;15918;51.270;6.522;2023-09-07T02:57:32;23.60;56.20
28763;DHT22;15918;51.270;6.522;2023-09-07T02:59:59;23.60;56.20
28763;DHT22;15918;51.270;6.522;2023-09-07T03:02:25;23.60;56.20
28763;DHT22;15918;51.270;6.522;2023-09-07T03:04:54;23.50;56.10
28763;DHT22;15918;51.270;6.522;2023-09-07T03:07:20;23.50;56.10
28763;DHT22;15918;51.270;6.522;2023-09-07T03:09:46;23.50;56.10
28763;DHT22;15918;51.270;6.522;2023-09-07T03:12:11;23.50;56.10
28763;DHT22;15918;51.270;6.522;2023-09-07T03:14:37;23.50;56.10
28763;DHT22;15918;51.270;6.522;2023-09-07T03:17:02;23.50;56.10
28763;DHT22;15918;51.270;6.522;2023-09-07T03:19:29;23.50;56.10
28763;DHT22;15918;51.270;6.522;2023-09-07T03:21:54;23.50;56.20
28763;DHT22;15918;51.270;6.522;2023-09-07T03:24:20;23.40;56.10
28763;DHT22;15918;51.270;6.522;2023-09-07T03:26:46;23.40;56.10
28763;DHT22;15918;51.270;6.522;2023-09-07T03:29:11;23.40;56.10
28763;DHT22;15918;51.270;6.522;2023-09-07T03:31:37;23.40;56.10
28763;DHT22;15918;51.270;6.522;2023-09-07T03:34:02;23.40;56.10
28763;DHT22;15918;51.270;6.522;2023-09-07T03:36:28;23.40;56.10
28763;DHT22;15918;51.270;6.522;2023-09-07T03:38:54;23.30;56.00
28763;DHT22;15918;51.270;6.522;2023-09-07T03:41:19;23.30;56.00
28763;DHT22;15918;51.270;6.522;2023-09-07T03:43:45;23.30;56.00
28763;DHT22;15918;51.270;6.522;2023-09-07T03:46:10;23.30;56.00
28763;DHT22;15918;51.270;6.522;2023-09-07T03:48:36;23.30;56.00
28763;DHT22;15918;51.270;6.522;2023-09-07T03:51:06;23.30;56.00
28763;DHT22;15918;51.270;6.522;2023-09-07T03:53:31;23.20;55.90
28763;DHT22;15918;51.270;6.522;2023-09-07T03:55:57;23.20;56.00
28763;DHT22;15918;51.270;6.522;2023-09-07T03:58:22;23.20;56.00
28763;DHT22;15918;51.270;6.522;2023-09-07T04:00:48;23.20;56.00
28763;DHT22;15918;51.270;6.522;2023-09-07T04:03:13;23.20;56.00
28763;DHT22;15918;51.270;6.522;2023-09-07T04:05:40;23.20;56.00
28763;DHT22;15918;51.270;6.522;2023-09-07T04:08:06;23.20;56.00
28763;DHT22;15918;51.270;6.522;2023-09-07T04:10:32;23.20;56.00
28763;DHT22;15918;51.270;6.522;2023-09-07T04:12:58;23.10;56.00
28763;DHT22;15918;51.270;6.522;2023-09-07T04:15:23;23.10;56.00
28763;DHT22;15918;51.270;6.522;2023-09-07T04:17:51;23.10;56.00
28763;DHT22;15918;51.270;6.522;2023-09-07T04:20:16;23.10;56.00
28763;DHT22;15918;51.270;6.522;2023-09-07T04:22:42;23.00;56.00
28763;DHT22;15918;51.270;6.522;2023-09-07T04:25:08;23.00;56.00
28763;DHT22;15918;51.270;6.522;2023-09-07T04:27:34;23.00;56.00
28763;DHT22;15918;51.270;6.522;2023-09-07T04:30:00;23.00;56.00
28763;DHT22;15918;51.270;6.522;2023-09-07T04:32:25;23.00;56.00
28763;DHT22;15918;51.270;6.522;2023-09-07T04:34:57;23.00;56.10
28763;DHT22;15918;51.270;6.522;2023-09-07T04:37:25;23.00;56.00
28763;DHT22;15918;51.270;6.522;2023-09-07T04:39:52;22.90;56.00
28763;DHT22;15918;51.270;6.522;2023-09-07T04:45:46;22.90;55.80
28763;DHT22;15918;51.270;6.522;2023-09-07T04:48:12;22.90;56.10
28763;DHT22;15918;51.270;6.522;2023-09-07T04:50:38;22.90;56.10
28763;DHT22;15918;51.270;6.522;2023-09-07T04:53:03;22.90;56.10
28763;DHT22;15918;51.270;6.522;2023-09-07T04:55:29;22.80;56.00
28763;DHT22;15918;51.270;6.522;2023-09-07T04:57:54;22.90;56.00
28763;DHT22;15918;51.270;6.522;2023-09-07T05:00:20;22.80;55.90
28763;DHT22;15918;51.270;6.522;2023-09-07T05:02:45;22.80;55.90
28763;DHT22;15918;51.270;6.522;2023-09-07T05:05:12;22.80;55.90
28763;DHT22;15918;51.270;6.522;2023-09-07T05:07:38;22.80;55.90
28763;DHT22;15918;51.270;6.522;2023-09-07T05:10:04;22.70;55.90
28763;DHT22;15918;51.270;6.522;2023-09-07T05:12:29;22.70;55.90
28763;DHT22;15918;51.270;6.522;2023-09-07T05:14:55;22.70;55.90
28763;DHT22;15918;51.270;6.522;2023-09-07T05:17:20;22.70;55.90
28763;DHT22;15918;51.270;6.522;2023-09-07T05:19:46;22.70;55.90
28763;DHT22;15918;51.270;6.522;2023-09-07T05:22:11;22.80;56.00
28763;DHT22;15918;51.270;6.522;2023-09-07T05:24:40;22.70;56.00
28763;DHT22;15918;51.270;6.522;2023-09-07T05:27:06;22.70;56.00
28763;DHT22;15918;51.270;6.522;2023-09-07T05:29:32;22.70;56.10
28763;DHT22;15918;51.270;6.522;2023-09-07T05:31:57;22.60;56.10
28763;DHT22;15918;51.270;6.522;2023-09-07T05:34:23;22.60;56.20
28763;DHT22;15918;51.270;6.522;2023-09-07T05:36:49;22.70;56.30
28763;DHT22;15918;51.270;6.522;2023-09-07T05:39:14;22.60;56.40
28763;DHT22;15918;51.270;6.522;2023-09-07T05:41:40;22.70;56.50
28763;DHT22;15918;51.270;6.522;2023-09-07T05:44:06;22.60;56.50
28763;DHT22;15918;51.270;6.522;2023-09-07T05:46:31;22.60;56.60
28763;DHT22;15918;51.270;6.522;2023-09-07T05:48:57;22.60;56.80
28763;DHT22;15918;51.270;6.522;2023-09-07T05:51:22;22.60;56.90
28763;DHT22;15918;51.270;6.522;2023-09-07T05:53:48;22.60;57.10
28763;DHT22;15918;51.270;6.522;2023-09-07T05:56:13;22.70;57.30
28763;DHT22;15918;51.270;6.522;2023-09-07T05:58:39;22.70;57.40
28763;DHT22;15918;51.270;6.522;2023-09-07T06:01:04;22.60;57.60
28763;DHT22;15918;51.270;6.522;2023-09-07T06:03:31;22.60;57.80
28763;DHT22;15918;51.270;6.522;2023-09-07T06:05:57;22.60;57.90
28763;DHT22;15918;51.270;6.522;2023-09-07T06:08:23;22.70;58.10
28763;DHT22;15918;51.270;6.522;2023-09-07T06:10:48;22.60;58.10
28763;DHT22;15918;51.270;6.522;2023-09-07T06:13:14;22.70;58.30
28763;DHT22;15918;51.270;6.522;2023-09-07T06:15:40;22.70;58.40
28763;DHT22;15918;51.270;6.522;2023-09-07T06:18:06;22.70;58.40
28763;DHT22;15918;51.270;6.522;2023-09-07T06:20:31;22.70;58.40
28763;DHT22;15918;51.270;6.522;2023-09-07T06:22:57;22.70;58.60
28763;DHT22;15918;51.270;6.522;2023-09-07T06:25:22;22.80;58.70
28763;DHT22;15918;51.270;6.522;2023-09-07T06:27:48;22.80;58.70
28763;DHT22;15918;51.270;6.522;2023-09-07T06:30:14;22.90;58.80
28763;DHT22;15918;51.270;6.522;2023-09-07T06:32:39;22.90;58.60
28763;DHT22;15918;51.270;6.522;2023-09-07T06:35:06;22.90;58.80
28763;DHT22;15918;51.270;6.522;2023-09-07T06:37:31;22.90;59.10
28763;DHT22;15918;51.270;6.522;2023-09-07T06:39:57;22.90;59.00
28763;DHT22;15918;51.270;6.522;2023-09-07T06:42:22;23.00;58.90
28763;DHT22;15918;51.270;6.522;2023-09-07T06:44:48;23.00;59.10
28763;DHT22;15918;51.270;6.522;2023-09-07T06:47:13;23.00;59.20
28763;DHT22;15918;51.270;6.522;2023-09-07T06:49:40;23.00;59.10
28763;DHT22;15918;51.270;6.522;2023-09-07T06:52:05;23.10;58.70
28763;DHT22;15918;51.270;6.522;2023-09-07T06:54:31;23.10;58.80
28763;DHT22;15918;51.270;6.522;2023-09-07T06:56:57;23.10;58.80
28763;DHT22;15918;51.270;6.522;2023-09-07T06:59:22;23.20;58.90
28763;DHT22;15918;51.270;6.522;2023-09-07T07:01:48;23.20;58.60
28763;DHT22;15918;51.270;6.522;2023-09-07T07:04:14;23.20;59.10
28763;DHT22;15918;51.270;6.522;2023-09-07T07:06:39;23.30;58.50
28763;DHT22;15918;51.270;6.522;2023-09-07T07:09:05;23.30;58.50
28763;DHT22;15918;51.270;6.522;2023-09-07T07:11:31;23.30;58.70
28763;DHT22;15918;51.270;6.522;2023-09-07T07:13:56;23.40;58.60
28763;DHT22;15918;51.270;6.522;2023-09-07T07:16:22;23.40;58.60
28763;DHT22;15918;51.270;6.522;2023-09-07T07:18:47;23.40;58.60
28763;DHT22;15918;51.270;6.522;2023-09-07T07:21:13;23.40;58.50
28763;DHT22;15918;51.270;6.522;2023-09-07T07:23:39;23.50;58.30
28763;DHT22;15918;51.270;6.522;2023-09-07T07:26:05;23.50;58.20
28763;DHT22;15918;51.270;6.522;2023-09-07T07:28:30;23.50;58.10
28763;DHT22;15918;51.270;6.522;2023-09-07T07:30:56;23.50;58.20
28763;DHT22;15918;51.270;6.522;2023-09-07T07:33:22;23.50;58.10
28763;DHT22;15918;51.270;6.522;2023-09-07T07:35:47;23.60;58.10
28763;DHT22;15918;51.270;6.522;2023-09-07T07:38:14;23.70;58.00
28763;DHT22;15918;51.270;6.522;2023-09-07T07:40:40;23.70;57.90
28763;DHT22;15918;51.270;6.522;2023-09-07T07:43:06;23.70;57.80
28763;DHT22;15918;51.270;6.522;2023-09-07T07:45:32;23.70;57.60
28763;DHT22;15918;51.270;6.522;2023-09-07T07:48:02;23.70;57.60
28763;DHT22;15918;51.270;6.522;2023-09-07T07:50:30;23.80;57.50
28763;DHT22;15918;51.270;6.522;2023-09-07T07:52:57;23.80;57.50
28763;DHT22;15918;51.270;6.522;2023-09-07T07:55:22;23.90;57.40
28763;DHT22;15918;51.270;6.522;2023-09-07T07:57:48;23.90;57.30
28763;DHT22;15918;51.270;6.522;2023-09-07T08:00:14;23.90;57.40
28763;DHT22;15918;51.270;6.522;2023-09-07T08:02:40;23.90;57.30
28763;DHT22;15918;51.270;6.522;2023-09-07T08:05:06;24.00;57.40
28763;DHT22;15918;51.270;6.522;2023-09-07T08:07:31;24.00;57.30
28763;DHT22;15918;51.270;6.522;2023-09-07T08:09:57;24.00;57.20
28763;DHT22;15918;51.270;6.522;2023-09-07T08:12:22;24.10;57.30
28763;DHT22;15918;51.270;6.522;2023-09-07T08:14:48;24.10;57.40
28763;DHT22;15918;51.270;6.522;2023-09-07T08:17:14;24.10;57.40
28763;DHT22;15918;51.270;6.522;2023-09-07T08:19:39;24.10;57.30
28763;DHT22;15918;51.270;6.522;2023-09-07T08:22:05;24.20;57.50
28763;DHT22;15918;51.270;6.522;2023-09-07T08:24:32;24.20;57.40
28763;DHT22;15918;51.270;6.522;2023-09-07T08:26:57;24.30;57.30
28763;DHT22;15918;51.270;6.522;2023-09-07T08:29:26;24.30;57.20
28763;DHT22;15918;51.270;6.522;2023-09-07T08:31:53;24.30;57.00
28763;DHT22;15918;51.270;6.522;2023-09-07T08:34:18;24.40;57.10
28763;DHT22;15918;51.270;6.522;2023-09-07T08:36:48;24.40;57.10
28763;DHT22;15918;51.270;6.522;2023-09-07T08:39:16;24.40;57.30
28763;DHT22;15918;51.270;6.522;2023-09-07T08:41:45;24.40;57.10
28763;DHT22;15918;51.270;6.522;2023-09-07T08:44:13;24.50;57.00
28763;DHT22;15918;51.270;6.522;2023-09-07T08:46:40;24.50;56.90
28763;DHT22;15918;51.270;6.522;2023-09-07T08:49:06;24.50;56.80
28763;DHT22;15918;51.270;6.522;2023-09-07T08:51:32;24.50;56.80
28763;DHT22;15918;51.270;6.522;2023-09-07T08:53:58;24.60;57.00
28763;DHT22;15918;51.270;6.522;2023-09-07T08:56:24;24.60;56.90
28763;DHT22;15918;51.270;6.522;2023-09-07T08:58:50;24.60;56.80
28763;DHT22;15918;51.270;6.522;2023-09-07T09:01:19;24.70;56.80
28763;DHT22;15918;51.270;6.522;2023-09-07T09:03:48;24.70;56.60
28763;DHT22;15918;51.270;6.522;2023-09-07T09:06:16;24.80;56.60
28763;DHT22;15918;51.270;6.522;2023-09-07T09:11:08;24.80;56.70
28763;DHT22;15918;51.270;6.522;2023-09-07T09:13:34;24.80;56.70
28763;DHT22;15918;51.270;6.522;2023-09-07T09:16:00;24.80;56.60
28763;DHT22;15918;51.270;6.522;2023-09-07T09:18:29;24.90;56.50
28763;DHT22;15918;51.270;6.522;2023-09-07T09:20:55;24.90;56.40
28763;DHT22;15918;51.270;6.522;2023-09-07T09:23:21;25.00;56.20
28763;DHT22;15918;51.270;6.522;2023-09-07T09:25:50;25.10;55.90
28763;DHT22;15918;51.270;6.522;2023-09-07T09:28:16;25.10;55.60
28763;DHT22;15918;51.270;6.522;2023-09-07T09:30:42;25.10;55.70
28763;DHT22;15918;51.270;6.522;2023-09-07T09:33:11;25.20;55.80
28763;DHT22;15918;51.270;6.522;2023-09-07T09:35:37;25.20;55.80
28763;DHT22;15918;51.270;6.522;2023-09-07T09:38:04;25.20;55.90
28763;DHT22;15918;51.270;6.522;2023-09-07T09:40:33;25.30;55.70
28763;DHT22;15918;51.270;6.522;2023-09-07T09:43:01;25.30;55.70
28763;DHT22;15918;51.270;6.522;2023-09-07T09:45:28;25.30;55.50
28763;DHT22;15918;51.270;6.522;2023-09-07T09:47:55;25.30;55.60
28763;DHT22;15918;51.270;6.522;2023-09-07T09:50:25;25.30;55.60
28763;DHT22;15918;51.270;6.522;2023-09-07T09:52:52;25.40;55.50
28763;DHT22;15918;51.270;6.522;2023-09-07T09:55:19;25.40;55.40
28763;DHT22;15918;51.270;6.522;2023-09-07T09:57:45;25.50;55.40
28763;DHT22;15918;51.270;6.522;2023-09-07T10:00:11;25.50;55.20
28763;DHT22;15918;51.270;6.522;2023-09-07T10:03:06;25.60;55.20
28763;DHT22;15918;51.270;6.522;2023-09-07T10:05:33;25.60;55.30
28763;DHT22;15918;51.270;6.522;2023-09-07T10:08:12;25.60;55.30
28763;DHT22;15918;51.270;6.522;2023-09-07T10:10:41;25.70;55.40
28763;DHT22;15918;51.270;6.522;2023-09-07T10:13:06;25.70;55.30
28763;DHT22;15918;51.270;6.522;2023-09-07T10:15:33;25.70;55.30
28763;DHT22;15918;51.270;6.522;2023-09-07T10:20:50;25.80;55.20
28763;DHT22;15918;51.270;6.522;2023-09-07T10:23:17;25.80;55.10
28763;DHT22;15918;51.270;6.522;2023-09-07T10:25:47;25.80;55.20
28763;DHT22;15918;51.270;6.522;2023-09-07T10:28:24;25.90;55.30
28763;DHT22;15918;51.270;6.522;2023-09-07T10:31:04;25.90;55.30
28763;DHT22;15918;51.270;6.522;2023-09-07T10:33:34;25.90;55.20
28763;DHT22;15918;51.270;6.522;2023-09-07T10:36:00;25.90;55.30
28763;DHT22;15918;51.270;6.522;2023-09-07T10:38:27;26.00;55.30
28763;DHT22;15918;51.270;6.522;2023-09-07T10:41:00;26.00;55.30
28763;DHT22;15918;51.270;6.522;2023-09-07T10:43:27;26.00;55.30
28763;DHT22;15918;51.270;6.522;2023-09-07T10:45:54;26.10;55.40
28763;DHT22;15918;51.270;6.522;2023-09-07T10:48:21;26.10;55.40
28763;DHT22;15918;51.270;6.522;2023-09-07T10:50:48;26.20;55.50
28763;DHT22;15918;51.270;6.522;2023-09-07T10:53:14;26.20;55.40
28763;DHT22;15918;51.270;6.522;2023-09-07T10:55:40;26.20;55.30
28763;DHT22;15918;51.270;6.522;2023-09-07T10:58:09;26.20;55.20
28763;DHT22;15918;51.270;6.522;2023-09-07T11:00:36;26.20;55.20
28763;DHT22;15918;51.270;6.522;2023-09-07T11:03:08;26.20;55.10
28763;DHT22;15918;51.270;6.522;2023-09-07T11:05:35;26.30;55.10
28763;DHT22;15918;51.270;6.522;2023-09-07T11:08:03;26.30;55.00
28763;DHT22;15918;51.270;6.522;2023-09-07T11:10:33;26.40;55.10
28763;DHT22;15918;51.270;6.522;2023-09-07T11:13:02;26.40;55.00
28763;DHT22;15918;51.270;6.522;2023-09-07T11:15:30;26.40;54.90
28763;DHT22;15918;51.270;6.522;2023-09-07T11:17:56;26.40;54.70
28763;DHT22;15918;51.270;6.522;2023-09-07T11:20:23;26.50;54.40
28763;DHT22;15918;51.270;6.522;2023-09-07T11:22:49;26.50;54.60
28763;DHT22;15918;51.270;6.522;2023-09-07T11:25:15;26.50;54.30
28763;DHT22;15918;51.270;6.522;2023-09-07T11:27:41;26.50;54.50
28763;DHT22;15918;51.270;6.522;2023-09-07T11:30:07;26.60;54.60
28763;DHT22;15918;51.270;6.522;2023-09-07T11:32:34;26.60;54.50
28763;DHT22;15918;51.270;6.522;2023-09-07T11:35:00;26.60;54.50
28763;DHT22;15918;51.270;6.522;2023-09-07T11:37:26;26.60;54.40
28763;DHT22;15918;51.270;6.522;2023-09-07T11:39:52;26.70;54.30
28763;DHT22;15918;51.270;6.522;2023-09-07T11:42:17;26.70;54.40
28763;DHT22;15918;51.270;6.522;2023-09-07T11:44:43;26.80;54.60
28763;DHT22;15918;51.270;6.522;2023-09-07T11:47:08;26.70;54.40
28763;DHT22;15918;51.270;6.522;2023-09-07T11:49:34;26.80;54.60
28763;DHT22;15918;51.270;6.522;2023-09-07T11:52:00;26.80;54.80
28763;DHT22;15918;51.270;6.522;2023-09-07T11:54:26;26.90;54.90
28763;DHT22;15918;51.270;6.522;2023-09-07T11:56:52;26.90;54.70
28763;DHT22;15918;51.270;6.522;2023-09-07T11:59:18;26.90;54.80
28763;DHT22;15918;51.270;6.522;2023-09-07T12:01:43;26.90;54.60
28763;DHT22;15918;51.270;6.522;2023-09-07T12:04:09;27.00;54.60
28763;DHT22;15918;51.270;6.522;2023-09-07T12:06:35;27.00;54.40
28763;DHT22;15918;51.270;6.522;2023-09-07T12:09:05;27.00;54.40
28763;DHT22;15918;51.270;6.522;2023-09-07T12:11:37;27.00;54.30
28763;DHT22;15918;51.270;6.522;2023-09-07T12:14:03;27.00;54.80
28763;DHT22;15918;51.270;6.522;2023-09-07T12:16:29;27.00;54.20
28763;DHT22;15918;51.270;6.522;2023-09-07T12:18:56;27.10;54.20
28763;DHT22;15918;51.270;6.522;2023-09-07T12:21:21;27.10;54.20
28763;DHT22;15918;51.270;6.522;2023-09-07T12:23:47;27.10;54.10
28763;DHT22;15918;51.270;6.522;2023-09-07T12:26:13;27.20;53.90
28763;DHT22;15918;51.270;6.522;2023-09-07T12:28:40;27.20;53.90
28763;DHT22;15918;51.270;6.522;2023-09-07T12:31:05;27.20;53.30
28763;DHT22;15918;51.270;6.522;2023-09-07T12:33:31;27.20;53.50
28763;DHT22;15918;51.270;6.522;2023-09-07T12:35:58;27.20;53.40
28763;DHT22;15918;51.270;6.522;2023-09-07T12:38:24;27.30;52.90
28763;DHT22;15918;51.270;6.522;2023-09-07T12:40:54;27.30;53.10
28763;DHT22;15918;51.270;6.522;2023-09-07T12:43:19;27.30;53.20
28763;DHT22;15918;51.270;6.522;2023-09-07T12:45:46;27.30;52.90
28763;DHT22;15918;51.270;6.522;2023-09-07T12:48:11;27.30;52.60
28763;DHT22;15918;51.270;6.522;2023-09-07T12:50:37;27.30;52.20
28763;DHT22;15918;51.270;6.522;2023-09-07T12:53:03;27.30;52.20
28763;DHT22;15918;51.270;6.522;2023-09-07T12:55:29;27.30;52.50
28763;DHT22;15918;51.270;6.522;2023-09-07T12:57:55;27.40;52.60
28763;DHT22;15918;51.270;6.522;2023-09-07T13:00:21;27.40;52.80
28763;DHT22;15918;51.270;6.522;2023-09-07T13:02:46;27.40;52.90
28763;DHT22;15918;51.270;6.522;2023-09-07T13:05:12;27.40;53.00
28763;DHT22;15918;51.270;6.522;2023-09-07T13:07:38;27.40;52.80
28763;DHT22;15918;51.270;6.522;2023-09-07T13:10:05;27.50;52.80
28763;DHT22;15918;51.270;6.522;2023-09-07T13:12:33;27.50;53.00
28763;DHT22;15918;51.270;6.522;2023-09-07T13:14:59;27.50;53.00
28763;DHT22;15918;51.270;6.522;2023-09-07T13:17:25;27.50;53.00
28763;DHT22;15918;51.270;6.522;2023-09-07T13:19:50;27.50;53.00
28763;DHT22;15918;51.270;6.522;2023-09-07T13:22:17;27.50;53.00
28763;DHT22;15918;51.270;6.522;2023-09-07T13:24:42;27.60;53.10
28763;DHT22;15918;51.270;6.522;2023-09-07T13:27:08;27.60;53.10
28763;DHT22;15918;51.270;6.522;2023-09-07T13:29:36;27.60;53.10
28763;DHT22;15918;51.270;6.522;2023-09-07T13:32:01;27.60;52.90
28763;DHT22;15918;51.270;6.522;2023-09-07T13:34:27;27.60;52.90
28763;DHT22;15918;51.270;6.522;2023-09-07T13:36:53;27.60;52.90
28763;DHT22;15918;51.270;6.522;2023-09-07T13:39:19;27.70;52.70
28763;DHT22;15918;51.270;6.522;2023-09-07T13:41:44;27.70;52.50
28763;DHT22;15918;51.270;6.522;2023-09-07T13:44:11;27.70;52.80
28763;DHT22;15918;51.270;6.522;2023-09-07T13:46:37;27.70;52.30
28763;DHT22;15918;51.270;6.522;2023-09-07T13:49:02;27.70;52.10
28763;DHT22;15918;51.270;6.522;2023-09-07T13:51:28;27.70;52.20
28763;DHT22;15918;51.270;6.522;2023-09-07T13:53:57;27.70;52.30
28763;DHT22;15918;51.270;6.522;2023-09-07T13:56:22;27.70;52.30
28763;DHT22;15918;51.270;6.522;2023-09-07T13:58:48;27.70;52.20
28763;DHT22;15918;51.270;6.522;2023-09-07T14:01:13;27.80;52.20
28763;DHT22;15918;51.270;6.522;2023-09-07T14:03:39;27.80;52.10
28763;DHT22;15918;51.270;6.522;2023-09-07T14:06:05;27.80;51.60
28763;DHT22;15918;51.270;6.522;2023-09-07T14:08:30;27.80;51.30
28763;DHT22;15918;51.270;6.522;2023-09-07T14:10:58;27.80;51.30
28763;DHT22;15918;51.270;6.522;2023-09-07T14:13:24;27.80;51.40
28763;DHT22;15918;51.270;6.522;2023-09-07T14:15:49;27.80;50.80
28763;DHT22;15918;51.270;6.522;2023-09-07T14:18:15;27.80;50.50
28763;DHT22;15918;51.270;6.522;2023-09-07T14:20:41;27.80;49.80
28763;DHT22;15918;51.270;6.522;2023-09-07T14:23:07;27.80;49.40
28763;DHT22;15918;51.270;6.522;2023-09-07T14:25:32;27.80;49.50
28763;DHT22;15918;51.270;6.522;2023-09-07T14:27:58;27.80;49.10
28763;DHT22;15918;51.270;6.522;2023-09-07T14:30:24;27.80;48.90
28763;DHT22;15918;51.270;6.522;2023-09-07T14:32:50;27.80;49.10
28763;DHT22;15918;51.270;6.522;2023-09-07T14:35:16;27.80;49.20
28763;DHT22;15918;51.270;6.522;2023-09-07T14:37:41;27.80;49.20
28763;DHT22;15918;51.270;6.522;2023-09-07T14:40:07;27.80;49.50
28763;DHT22;15918;51.270;6.522;2023-09-07T14:42:34;27.80;49.30
28763;DHT22;15918;51.270;6.522;2023-09-07T14:45:00;27.80;49.30
28763;DHT22;15918;51.270;6.522;2023-09-07T14:47:30;27.80;49.20
28763;DHT22;15918;51.270;6.522;2023-09-07T14:49:56;27.80;49.30
28763;DHT22;15918;51.270;6.522;2023-09-07T14:52:22;27.80;49.10
28763;DHT22;15918;51.270;6.522;2023-09-07T14:54:50;27.80;48.80
28763;DHT22;15918;51.270;6.522;2023-09-07T14:57:15;27.80;48.80
28763;DHT22;15918;51.270;6.522;2023-09-07T14:59:41;27.80;48.80
28763;DHT22;15918;51.270;6.522;2023-09-07T15:02:07;27.80;48.80
28763;DHT22;15918;51.270;6.522;2023-09-07T15:04:33;27.80;48.60
28763;DHT22;15918;51.270;6.522;2023-09-07T15:06:59;27.80;48.50
28763;DHT22;15918;51.270;6.522;2023-09-07T15:09:25;27.80;48.50
28763;DHT22;15918;51.270;6.522;2023-09-07T15:11:50;27.80;48.70
28763;DHT22;15918;51.270;6.522;2023-09-07T15:14:18;27.80;48.60
28763;DHT22;15918;51.270;6.522;2023-09-07T15:16:44;27.80;48.50
28763;DHT22;15918;51.270;6.522;2023-09-07T15:19:09;27.80;48.20
28763;DHT22;15918;51.270;6.522;2023-09-07T15:21:35;27.80;48.40
28763;DHT22;15918;51.270;6.522;2023-09-07T15:24:01;27.80;48.30
28763;DHT22;15918;51.270;6.522;2023-09-07T15:26:26;27.80;47.60
28763;DHT22;15918;51.270;6.522;2023-09-07T15:28:52;27.80;47.70
28763;DHT22;15918;51.270;6.522;2023-09-07T15:31:17;27.80;47.60
28763;DHT22;15918;51.270;6.522;2023-09-07T15:33:43;27.80;47.50